Time;durP1;ratioP1;P1;durP2;ratioP2;P2;SDS_P1;SDS_P2;PMS_P1;PMS_P2;Temp;Humidity;BMP_temperature;BMP_pressure;BME280_temperature;BME280_humidity;BME280_pressure;Samples;Min_cycle;Max_cycle;Signal;HPM_P1;HPM_P2
2022/11/23 00:01:22;;;;;;;11.77;4.03;;;5.90;99.90;;;;;;5031490;28;20041;-69
2022/11/23 00:03:51;;;;;;;9.23;4.32;;;6.00;99.90;;;;;;5000240;28;20050;-69
2022/11/23 00:06:20;;;;;;;11.13;4.50;;;6.00;99.90;;;;;;5011800;28;20052;-69
2022/11/23 00:08:48;;;;;;;7.75;4.43;;;5.90;99.90;;;;;;5011227;28;20137;-68
2022/11/23 00:11:18;;;;;;;10.13;4.20;;;5.80;99.90;;;;;;5023984;28;20462;-68
2022/11/23 00:13:46;;;;;;;10.45;5.05;;;5.80;99.90;;;;;;5021876;28;20615;-69
2022/11/23 00:16:19;;;;;;;8.15;4.25;;;5.80;99.90;;;;;;4999660;28;20037;-68
2022/11/23 00:18:46;;;;;;;8.68;4.45;;;5.80;99.90;;;;;;5002708;28;20063;-67
2022/11/23 00:21:16;;;;;;;9.93;4.20;;;5.80;99.90;;;;;;5023500;28;20071;-68
2022/11/23 00:23:44;;;;;;;11.50;5.65;;;5.80;99.90;;;;;;5026719;28;20049;-67
2022/11/23 00:26:13;;;;;;;7.55;4.15;;;5.70;99.90;;;;;;5018030;28;20131;-67
2022/11/23 00:28:41;;;;;;;8.60;4.10;;;5.70;99.90;;;;;;5011941;28;20049;-67
2022/11/23 00:31:26;;;;;;;11.27;4.22;;;5.70;99.90;;;;;;5014074;28;20045;-68
2022/11/23 00:33:55;;;;;;;14.20;4.45;;;5.60;99.90;;;;;;5013958;28;20045;-68
2022/11/23 00:36:24;;;;;;;16.45;5.07;;;5.50;99.90;;;;;;5018010;28;20137;-67
2022/11/23 00:38:56;;;;;;;9.93;3.90;;;5.50;99.90;;;;;;5013928;28;20076;-66
2022/11/23 00:41:25;;;;;;;;;;;5.50;99.90;;;;;;5020343;28;20048;-67
2022/11/23 00:43:52;;;;;;;13.48;4.95;;;5.40;99.90;;;;;;5024608;28;20011;-67
2022/11/23 00:46:26;;;;;;;13.15;4.50;;;5.40;99.90;;;;;;5018672;28;20456;-66
2022/11/23 00:48:55;;;;;;;8.55;4.30;;;5.30;99.90;;;;;;5018376;28;20052;-68
2022/11/23 00:51:33;;;;;;;10.70;4.50;;;5.30;99.90;;;;;;5010683;28;20038;-67
2022/11/23 00:54:02;;;;;;;12.85;4.78;;;5.20;99.90;;;;;;5012271;28;20448;-67
2022/11/23 00:56:31;;;;;;;12.40;5.45;;;5.20;99.90;;;;;;5019937;28;20076;-68
2022/11/23 00:59:00;;;;;;;10.23;4.55;;;5.20;99.90;;;;;;5008980;28;20049;-68
2022/11/23 01:01:32;;;;;;;10.95;5.53;;;5.10;99.90;;;;;;5014043;28;20104;-68
2022/11/23 01:04:03;;;;;;;8.52;4.53;;;5.10;99.90;;;;;;4992854;28;20084;-68
2022/11/23 01:06:36;;;;;;;13.23;4.68;;;5.10;99.90;;;;;;4993329;28;20073;-67
2022/11/23 01:09:10;;;;;;;10.50;5.50;;;5.10;99.90;;;;;;5009037;28;20534;-67
2022/11/23 01:11:38;;;;;;;8.63;4.43;;;5.10;99.90;;;;;;5010428;28;20124;-68
2022/11/23 01:14:06;;;;;;;9.45;4.40;;;5.00;99.90;;;;;;5023993;28;20370;-67
2022/11/23 01:16:36;;;;;;;10.07;4.68;;;5.00;99.90;;;;;;5015751;28;20079;-68
2022/11/23 01:19:07;;;;;;;10.63;4.80;;;4.90;99.90;;;;;;5015220;28;20045;-68
2022/11/23 01:21:35;;;;;;;13.73;5.10;;;4.90;99.90;;;;;;4992747;28;20610;-67
2022/11/23 01:24:13;;;;;;;11.25;5.20;;;4.90;99.90;;;;;;5003719;28;20073;-67
2022/11/23 01:26:41;;;;;;;13.93;5.20;;;4.80;99.90;;;;;;5012307;28;20050;-68
2022/11/23 01:29:09;;;;;;;12.95;4.93;;;4.80;99.90;;;;;;5012025;28;20429;-68
2022/11/23 01:31:39;;;;;;;12.65;5.13;;;4.80;99.90;;;;;;5016777;28;20069;-67
2022/11/23 01:34:14;;;;;;;13.68;5.28;;;4.70;99.90;;;;;;5009885;28;20524;-68
2022/11/23 01:36:42;;;;;;;12.13;5.50;;;4.70;99.90;;;;;;4992294;28;20057;-67
2022/11/23 01:39:10;;;;;;;14.07;5.30;;;4.70;99.90;;;;;;5019419;28;20498;-68
2022/11/23 01:41:41;;;;;;;8.82;4.80;;;4.70;99.90;;;;;;5016678;28;20080;-67
2022/11/23 01:44:29;;;;;;;13.23;5.03;;;4.60;99.90;;;;;;5024852;28;20053;-67
2022/11/23 01:47:05;;;;;;;11.43;5.45;;;4.70;99.90;;;;;;5006975;28;20446;-67
2022/11/23 01:49:38;;;;;;;16.23;5.80;;;4.60;99.90;;;;;;5029646;28;20468;-68
2022/11/23 01:52:14;;;;;;;10.05;5.45;;;4.60;99.90;;;;;;4998636;28;20049;-68
2022/11/23 01:54:53;;;;;;;14.60;5.50;;;4.50;99.90;;;;;;5019815;28;20130;-68
2022/11/23 01:57:30;;;;;;;15.32;6.25;;;4.60;99.90;;;;;;5006287;28;20053;-69
2022/11/23 02:00:00;;;;;;;13.70;5.70;;;4.60;99.90;;;;;;5019461;28;20049;-68
2022/11/23 02:02:49;;;;;;;11.35;5.60;;;4.50;99.90;;;;;;5012667;28;20096;-68
2022/11/23 02:05:18;;;;;;;13.25;5.82;;;4.50;99.90;;;;;;5025848;28;20120;-69
2022/11/23 02:07:48;;;;;;;12.32;5.25;;;4.60;99.90;;;;;;5015236;28;20396;-68
2022/11/23 02:10:16;;;;;;;11.75;5.15;;;4.50;99.90;;;;;;5003628;28;20140;-68
2022/11/23 02:12:43;;;;;;;10.45;5.35;;;4.50;99.90;;;;;;4999264;28;20076;-67
2022/11/23 02:15:11;;;;;;;10.35;5.45;;;4.50;99.90;;;;;;5006547;28;20053;-67
2022/11/23 02:17:41;;;;;;;13.10;4.57;;;4.50;99.90;;;;;;5026032;28;20042;-67
2022/11/23 02:20:12;;;;;;;10.93;5.03;;;4.60;99.90;;;;;;5014680;28;20049;-67
2022/11/23 02:22:49;;;;;;;7.72;4.57;;;4.60;99.90;;;;;;5014926;28;20056;-69
2022/11/23 02:25:44;;;;;;;11.68;4.63;;;4.50;99.90;;;;;;4997903;28;20107;-68
2022/11/23 02:28:24;;;;;;;9.57;4.40;;;4.50;99.90;;;;;;5000163;28;20068;-68
2022/11/23 02:30:53;;;;;;;8.40;4.68;;;4.60;99.90;;;;;;5006270;28;20038;-68
2022/11/23 02:33:24;;;;;;;11.52;4.97;;;4.50;99.90;;;;;;4999330;28;20075;-68
2022/11/23 02:35:57;;;;;;;8.55;4.60;;;4.60;99.90;;;;;;5011512;28;20121;-68
2022/11/23 02:38:29;;;;;;;12.82;4.40;;;4.60;99.90;;;;;;5016435;28;20052;-68
2022/11/23 02:40:56;;;;;;;14.77;4.57;;;4.60;99.90;;;;;;5030639;28;20048;-67
2022/11/23 02:43:24;;;;;;;11.32;4.47;;;4.70;99.90;;;;;;5030518;28;20056;-67
2022/11/23 02:46:00;;;;;;;9.25;4.90;;;4.70;99.90;;;;;;5020883;28;20068;-68
2022/11/23 02:48:27;;;;;;;10.90;5.07;;;4.70;99.90;;;;;;5031648;28;20550;-67
2022/11/23 02:50:55;;;;;;;10.32;4.82;;;4.70;99.90;;;;;;5031652;28;20053;-67
2022/11/23 02:53:23;;;;;;;12.10;5.03;;;4.70;99.90;;;;;;5031419;28;20419;-67
2022/11/23 02:55:52;;;;;;;9.30;4.88;;;4.60;99.90;;;;;;5027688;28;20493;-67
2022/11/23 02:58:20;;;;;;;11.02;5.05;;;4.60;99.90;;;;;;5020981;28;20041;-67
2022/11/23 03:00:47;;;;;;;11.55;5.43;;;4.70;99.90;;;;;;5028845;28;20053;-68
2022/11/23 03:03:18;;;;;;;10.43;4.97;;;4.60;99.90;;;;;;5029886;28;20045;-67
2022/11/23 03:05:46;;;;;;;10.98;5.47;;;4.70;99.90;;;;;;4996962;28;20806;-71
2022/11/23 03:08:13;;;;;;;13.77;6.78;;;4.70;99.90;;;;;;5003188;28;20495;-67
2022/11/23 03:10:41;;;;;;;15.35;5.45;;;4.70;99.90;;;;;;5012920;28;20042;-67
2022/11/23 03:13:10;;;;;;;10.20;4.60;;;4.70;99.90;;;;;;5020793;28;20107;-70
2022/11/23 03:15:38;;;;;;;10.65;4.85;;;4.70;99.90;;;;;;5003877;28;20056;-67
2022/11/23 03:18:06;;;;;;;9.63;4.93;;;4.70;99.90;;;;;;5009271;28;20054;-67
2022/11/23 03:20:34;;;;;;;11.60;4.88;;;4.70;99.90;;;;;;5022173;28;20068;-68
2022/11/23 03:23:01;;;;;;;12.35;5.30;;;4.70;99.90;;;;;;5030634;28;20049;-67
2022/11/23 03:25:29;;;;;;;11.38;4.75;;;4.70;99.90;;;;;;5016346;28;20509;-67
2022/11/23 03:27:57;;;;;;;11.10;5.20;;;4.70;99.90;;;;;;5026265;28;20056;-66
2022/11/23 03:30:26;;;;;;;11.25;4.75;;;4.60;99.90;;;;;;5008928;28;20133;-67
2022/11/23 03:32:53;;;;;;;11.15;4.88;;;4.60;99.90;;;;;;5007227;28;20046;-68
2022/11/23 03:35:22;;;;;;;11.73;4.75;;;4.50;99.90;;;;;;4997786;28;20539;-68
2022/11/23 03:38:22;;;;;;;11.90;4.90;;;4.50;99.90;;;;;;5012517;28;20046;-68
2022/11/23 03:40:51;;;;;;;9.32;4.70;;;4.40;99.90;;;;;;5025842;28;20034;-68
2022/11/23 03:43:24;;;;;;;8.93;4.63;;;4.40;99.90;;;;;;5008690;28;20041;-67
2022/11/23 03:45:51;;;;;;;9.93;5.20;;;4.30;99.90;;;;;;5016415;28;20138;-67
2022/11/23 03:48:19;;;;;;;14.18;5.05;;;4.20;99.90;;;;;;5020332;28;20038;-68
2022/11/23 03:50:47;;;;;;;12.68;5.50;;;4.20;99.90;;;;;;5027000;28;20045;-67
2022/11/23 03:53:14;;;;;;;10.25;4.90;;;4.20;99.90;;;;;;5028167;28;20503;-68
2022/11/23 03:55:45;;;;;;;9.57;4.80;;;4.10;99.90;;;;;;5030132;28;20037;-67
2022/11/23 03:58:13;;;;;;;8.15;5.28;;;4.10;99.90;;;;;;5009218;28;20107;-68
2022/11/23 04:00:42;;;;;;;14.65;5.20;;;4.10;99.90;;;;;;5012665;28;20159;-68
2022/11/23 04:03:12;;;;;;;11.60;5.10;;;4.10;99.90;;;;;;5029894;28;20392;-67
2022/11/23 04:05:58;;;;;;;8.63;4.65;;;4.10;99.90;;;;;;5031598;28;20062;-68
2022/11/23 04:08:51;;;;;;;9.95;4.63;;;4.00;99.90;;;;;;5028478;28;20597;-68
2022/11/23 04:11:54;;;;;;;10.00;5.15;;;4.00;99.90;;;;;;5022821;28;20046;-67
2022/11/23 04:14:21;;;;;;;10.90;4.80;;;4.00;99.90;;;;;;4994725;28;20103;-68
2022/11/23 04:16:48;;;;;;;11.65;5.32;;;4.00;99.90;;;;;;4994433;28;20045;-67
2022/11/23 04:19:16;;;;;;;10.45;5.45;;;3.90;99.90;;;;;;5023217;28;20069;-67
2022/11/23 04:21:43;;;;;;;10.57;5.05;;;4.00;99.90;;;;;;5027115;28;20550;-68
2022/11/23 04:24:12;;;;;;;9.38;4.85;;;4.00;99.90;;;;;;5008809;28;20156;-67
2022/11/23 04:26:41;;;;;;;9.95;4.95;;;4.00;99.90;;;;;;4999689;28;20045;-66
2022/11/23 04:29:10;;;;;;;10.82;5.22;;;4.10;99.90;;;;;;5010383;28;20049;-67
2022/11/23 04:31:41;;;;;;;10.05;5.15;;;4.10;99.90;;;;;;5009297;28;20073;-69
2022/11/23 04:34:15;;;;;;;11.60;5.38;;;4.10;99.90;;;;;;4995862;28;20107;-68
2022/11/23 04:36:43;;;;;;;23.15;8.65;;;4.20;99.90;;;;;;5009372;28;20123;-69
2022/11/23 04:39:12;;;;;;;13.50;6.45;;;4.20;99.90;;;;;;5022057;28;20064;-69
2022/11/23 04:42:00;;;;;;;10.63;5.50;;;4.30;99.90;;;;;;5002315;28;20127;-69
2022/11/23 04:44:29;;;;;;;11.15;6.43;;;4.40;99.90;;;;;;4992276;28;20045;-68
2022/11/23 04:47:01;;;;;;;14.50;6.13;;;4.40;99.90;;;;;;5027231;28;20049;-68
2022/11/23 04:49:28;;;;;;;10.48;5.50;;;4.40;99.90;;;;;;5011690;28;20145;-68
2022/11/23 04:51:56;;;;;;;14.02;4.85;;;4.50;99.90;;;;;;5028659;28;20029;-68
2022/11/23 04:54:31;;;;;;;11.85;5.00;;;4.60;99.90;;;;;;5011556;28;20038;-68
2022/11/23 04:57:01;;;;;;;11.43;6.05;;;4.60;99.90;;;;;;5020884;28;20068;-68
2022/11/23 04:59:28;;;;;;;10.90;6.10;;;4.70;99.90;;;;;;5005167;28;20601;-67
2022/11/23 05:01:57;;;;;;;9.32;5.60;;;4.70;99.90;;;;;;5028031;28;20072;-68
2022/11/23 05:04:43;;;;;;;20.30;10.43;;;4.70;99.90;;;;;;5029266;28;20084;-69
2022/11/23 05:07:12;;;;;;;14.02;6.70;;;4.70;99.90;;;;;;4983446;28;20120;-67
2022/11/23 05:09:43;;;;;;;13.75;7.18;;;4.80;99.90;;;;;;4997772;28;20049;-68
2022/11/23 05:12:16;;;;;;;10.50;5.20;;;4.80;99.90;;;;;;5010374;28;20535;-69
2022/11/23 05:14:44;;;;;;;11.80;4.80;;;4.70;99.90;;;;;;5026620;28;20037;-67
2022/11/23 05:17:15;;;;;;;10.48;5.70;;;4.70;99.90;;;;;;5022484;28;20034;-67
2022/11/23 05:19:44;;;;;;;13.10;5.70;;;4.70;99.90;;;;;;5027086;28;20041;-67
2022/11/23 05:22:12;;;;;;;11.07;5.63;;;4.70;99.90;;;;;;5010039;28;20058;-67
2022/11/23 05:24:41;;;;;;;10.48;4.78;;;4.70;99.90;;;;;;5008674;28;20049;-67
2022/11/23 05:27:14;;;;;;;10.18;5.13;;;4.70;99.90;;;;;;5024285;28;20072;-66
2022/11/23 05:29:42;;;;;;;11.27;4.60;;;4.80;99.90;;;;;;5028553;28;20534;-68
2022/11/23 05:32:10;;;;;;;12.07;5.63;;;4.70;99.90;;;;;;5004336;28;20462;-69
2022/11/23 05:34:38;;;;;;;12.23;4.75;;;4.70;99.90;;;;;;5013934;28;20037;-68
2022/11/23 05:37:07;;;;;;;11.65;5.32;;;4.80;99.90;;;;;;4998224;28;20037;-69
2022/11/23 05:39:44;;;;;;;10.23;5.10;;;4.80;99.90;;;;;;5026785;28;20610;-69
2022/11/23 05:42:12;;;;;;;18.13;9.20;;;4.80;99.90;;;;;;5024983;28;20429;-67
2022/11/23 05:44:41;;;;;;;37.65;14.20;;;4.80;99.90;;;;;;5001198;28;20049;-66
2022/11/23 05:47:17;;;;;;;10.63;5.72;;;4.80;99.90;;;;;;5015428;28;20593;-66
2022/11/23 05:49:44;;;;;;;10.05;5.30;;;4.80;99.90;;;;;;5025630;28;20080;-69
2022/11/23 05:52:13;;;;;;;13.77;5.38;;;4.80;99.90;;;;;;5016382;28;20092;-67
2022/11/23 05:54:40;;;;;;;10.90;5.50;;;4.80;99.90;;;;;;5016586;28;20121;-69
2022/11/23 05:57:11;;;;;;;8.80;4.80;;;4.90;99.90;;;;;;5023467;28;20045;-68
2022/11/23 05:59:40;;;;;;;11.45;5.60;;;4.80;99.90;;;;;;5005675;28;20042;-68
2022/11/23 06:02:11;;;;;;;12.52;6.22;;;4.90;99.90;;;;;;5015930;28;20049;-68
2022/11/23 06:04:39;;;;;;;12.40;6.00;;;4.90;99.90;;;;;;5022788;28;20046;-69
2022/11/23 06:07:10;;;;;;;13.90;5.90;;;4.90;99.90;;;;;;5021814;28;20053;-68
2022/11/23 06:09:54;;;;;;;12.50;6.72;;;4.90;99.90;;;;;;5020118;28;20120;-71
2022/11/23 06:12:22;;;;;;;18.95;7.93;;;4.90;99.90;;;;;;5025770;28;20467;-71
2022/11/23 06:14:49;;;;;;;11.73;6.25;;;4.90;99.90;;;;;;5007539;28;20045;-71
2022/11/23 06:17:20;;;;;;;14.60;5.68;;;4.90;99.90;;;;;;5021326;28;20045;-70
2022/11/23 06:19:49;;;;;;;11.27;5.20;;;5.00;99.90;;;;;;5027548;28;20098;-71
2022/11/23 06:22:16;;;;;;;11.07;5.43;;;5.00;99.90;;;;;;5026999;28;20045;-70
2022/11/23 06:24:53;;;;;;;9.73;4.28;;;4.90;99.90;;;;;;5025340;28;20746;-71
2022/11/23 06:27:33;;;;;;;12.88;4.75;;;5.00;99.90;;;;;;4989680;28;20061;-71
2022/11/23 06:30:05;;;;;;;12.13;5.17;;;5.00;99.90;;;;;;5008215;28;20491;-71
2022/11/23 06:32:33;;;;;;;11.45;5.05;;;4.90;99.90;;;;;;5028292;28;20281;-71
2022/11/23 06:35:00;;;;;;;13.20;5.47;;;4.90;99.90;;;;;;5025909;28;20053;-70
2022/11/23 06:37:31;;;;;;;10.60;5.83;;;4.90;99.90;;;;;;5014359;28;20034;-72
2022/11/23 06:40:00;;;;;;;11.57;5.15;;;4.90;99.90;;;;;;5018173;28;20139;-72
2022/11/23 06:42:27;;;;;;;13.18;4.78;;;5.00;99.90;;;;;;5003374;28;20061;-71
2022/11/23 06:45:08;;;;;;;13.88;5.18;;;5.00;99.90;;;;;;5003267;28;20042;-71
2022/11/23 06:47:36;;;;;;;13.63;5.45;;;5.00;99.90;;;;;;5007013;28;20514;-71
2022/11/23 06:50:04;;;;;;;13.05;5.68;;;5.10;99.90;;;;;;5024188;28;20419;-71
2022/11/23 06:52:32;;;;;;;12.95;5.85;;;5.10;99.90;;;;;;5011148;28;20060;-71
2022/11/23 06:54:59;;;;;;;18.27;5.55;;;5.10;99.90;;;;;;5019833;28;20037;-70
2022/11/23 06:57:27;;;;;;;15.48;5.68;;;5.10;99.90;;;;;;5028792;28;20029;-71
2022/11/23 06:59:55;;;;;;;9.18;5.13;;;5.00;99.90;;;;;;5022095;28;20066;-71
2022/11/23 07:02:31;;;;;;;10.23;5.35;;;5.10;99.90;;;;;;5007514;28;20037;-72
2022/11/23 07:04:58;;;;;;;9.63;4.13;;;5.10;99.90;;;;;;5024272;28;20088;-72
2022/11/23 07:07:27;;;;;;;11.45;5.07;;;5.20;99.90;;;;;;5005117;28;20227;-70
2022/11/23 07:10:04;;;;;;;9.63;4.93;;;5.10;99.90;;;;;;5008152;28;20437;-71
2022/11/23 07:13:02;;;;;;;17.63;4.63;;;5.20;99.90;;;;;;5029558;28;20040;-72
2022/11/23 07:15:30;;;;;;;9.68;4.82;;;5.20;99.90;;;;;;5033454;28;20327;-74
2022/11/23 07:17:59;;;;;;;8.30;4.78;;;5.20;99.90;;;;;;5023614;28;20685;-73
2022/11/23 07:20:26;;;;;;;9.60;4.88;;;5.30;99.90;;;;;;5023080;28;20045;-72
2022/11/23 07:23:06;;;;;;;8.93;5.15;;;5.30;99.90;;;;;;5020649;28;20172;-74
2022/11/23 07:25:35;;;;;;;11.88;4.68;;;5.40;99.90;;;;;;5002067;28;20429;-71
2022/11/23 07:28:05;;;;;;;11.93;4.57;;;5.40;99.90;;;;;;5016518;28;20083;-71
2022/11/23 07:30:34;;;;;;;10.90;4.43;;;5.40;99.90;;;;;;5024272;28;20140;-71
2022/11/23 07:33:08;;;;;;;10.95;4.97;;;5.40;99.90;;;;;;5019516;28;20389;-72
2022/11/23 07:35:38;;;;;;;12.07;5.00;;;5.40;99.90;;;;;;5011561;28;20066;-73
2022/11/23 07:38:09;;;;;;;9.65;5.03;;;5.40;99.90;;;;;;5022105;28;20427;-73
2022/11/23 07:40:37;;;;;;;10.30;4.68;;;5.50;99.90;;;;;;5002868;28;20037;-71
2022/11/23 07:43:11;;;;;;;9.70;5.00;;;5.50;99.90;;;;;;5009018;28;20046;-72
2022/11/23 07:45:39;;;;;;;11.18;5.65;;;5.60;99.90;;;;;;5012324;28;20038;-71
2022/11/23 07:48:08;;;;;;;11.35;4.88;;;5.70;99.90;;;;;;5019437;28;20053;-70
2022/11/23 07:50:37;;;;;;;11.93;5.05;;;5.70;99.90;;;;;;5027810;28;20038;-71
2022/11/23 07:53:05;;;;;;;12.15;5.63;;;5.70;99.90;;;;;;5026651;28;20056;-71
2022/11/23 07:55:33;;;;;;;9.45;5.68;;;5.80;99.90;;;;;;5009583;28;20050;-70
2022/11/23 07:58:01;;;;;;;9.70;4.97;;;5.80;99.90;;;;;;5018944;28;20528;-71
2022/11/23 08:00:29;;;;;;;10.70;5.57;;;5.80;99.90;;;;;;5025305;28;20068;-71
2022/11/23 08:02:57;;;;;;;10.13;5.55;;;5.80;99.90;;;;;;5012933;28;20042;-72
2022/11/23 08:05:45;;;;;;;15.63;5.50;;;5.90;99.90;;;;;;5024376;28;20454;-71
2022/11/23 08:08:12;;;;;;;11.27;5.20;;;5.90;99.90;;;;;;5009050;28;20049;-71
2022/11/23 08:10:40;;;;;;;11.55;5.30;;;5.90;99.90;;;;;;4996055;28;20129;-71
2022/11/23 08:13:14;;;;;;;11.90;5.03;;;6.00;99.90;;;;;;5026255;28;20511;-71
2022/11/23 08:15:41;;;;;;;11.23;5.38;;;6.00;99.90;;;;;;5017093;28;20056;-71
2022/11/23 08:18:09;;;;;;;11.52;5.38;;;6.00;99.90;;;;;;5025362;28;20411;-71
2022/11/23 08:20:36;;;;;;;12.77;5.32;;;6.00;99.90;;;;;;5016274;28;20416;-71
2022/11/23 08:23:04;;;;;;;10.05;4.78;;;6.10;99.90;;;;;;5026487;28;20407;-71
2022/11/23 08:25:31;;;;;;;10.10;5.30;;;6.10;99.90;;;;;;5027994;28;20049;-71
2022/11/23 08:28:03;;;;;;;10.32;5.60;;;6.10;99.90;;;;;;5015634;28;20089;-70
2022/11/23 08:30:31;;;;;;;;;;;6.10;99.90;;;;;;5029962;28;20121;-71
2022/11/23 08:33:01;;;;;;;11.50;5.22;;;6.20;99.90;;;;;;5030547;28;19929;-71
2022/11/23 08:35:29;;;;;;;11.43;5.38;;;6.20;99.90;;;;;;5028095;28;20140;-70
2022/11/23 08:37:56;;;;;;;12.80;5.53;;;6.20;99.90;;;;;;5019152;28;20349;-71
2022/11/23 08:40:24;;;;;;;13.27;6.15;;;6.20;99.90;;;;;;5014314;28;20059;-71
2022/11/23 08:42:52;;;;;;;9.05;5.20;;;6.20;99.90;;;;;;5029529;28;20455;-71
2022/11/23 08:45:19;;;;;;;8.15;4.95;;;6.20;99.90;;;;;;5029009;28;20535;-71
2022/11/23 08:47:47;;;;;;;11.85;4.75;;;6.30;99.90;;;;;;5023659;28;20041;-71
2022/11/23 08:50:15;;;;;;;10.93;5.22;;;6.40;99.90;;;;;;5030334;28;20056;-71
2022/11/23 08:52:42;;;;;;;7.55;4.78;;;6.40;99.90;;;;;;5030025;28;20144;-70
2022/11/23 08:55:10;;;;;;;11.18;5.60;;;6.40;99.90;;;;;;5024943;28;20093;-71
2022/11/23 08:57:37;;;;;;;11.55;4.80;;;6.50;99.90;;;;;;5029274;28;20049;-72
2022/11/23 09:00:05;;;;;;;11.68;5.07;;;6.60;99.90;;;;;;5028615;28;20499;-70
2022/11/23 09:02:32;;;;;;;13.23;4.95;;;6.60;99.90;;;;;;5025204;28;20095;-70
2022/11/23 09:05:00;;;;;;;11.68;4.68;;;6.70;99.90;;;;;;5024488;28;20046;-70
2022/11/23 09:07:27;;;;;;;10.18;5.53;;;6.80;99.90;;;;;;5014104;28;20127;-71
2022/11/23 09:09:54;;;;;;;9.80;5.13;;;6.80;99.90;;;;;;5015614;28;20053;-70
2022/11/23 09:12:22;;;;;;;9.77;5.40;;;6.80;99.90;;;;;;5029400;28;20508;-70
2022/11/23 09:14:49;;;;;;;10.07;5.90;;;6.90;99.90;;;;;;5024516;28;20046;-71
2022/11/23 09:17:16;;;;;;;25.02;11.85;;;7.00;99.90;;;;;;5024539;28;20431;-71
2022/11/23 09:19:43;;;;;;;29.42;13.20;;;7.10;99.90;;;;;;5028588;28;20114;-70
2022/11/23 09:22:11;;;;;;;14.43;6.68;;;7.20;99.90;;;;;;5029215;28;20133;-70
2022/11/23 09:24:38;;;;;;;10.55;5.25;;;7.30;99.90;;;;;;5020599;28;20128;-70
2022/11/23 09:27:06;;;;;;;13.77;5.13;;;7.40;99.90;;;;;;5027787;28;20045;-70
2022/11/23 09:29:34;;;;;;;13.10;5.55;;;7.40;99.90;;;;;;5009937;28;20558;-71
2022/11/23 09:32:02;;;;;;;10.73;5.05;;;7.60;99.90;;;;;;5023735;28;20048;-71
2022/11/23 09:34:29;;;;;;;13.10;5.13;;;7.70;99.90;;;;;;5024116;28;20045;-71
2022/11/23 09:36:57;;;;;;;12.80;5.78;;;7.80;99.90;;;;;;5011091;28;20061;-70
2022/11/23 09:39:24;;;;;;;10.13;4.90;;;7.80;99.90;;;;;;5024064;28;20402;-71
2022/11/23 09:42:13;;;;;;;11.93;4.75;;;8.00;99.90;;;;;;5009254;28;20679;-71
2022/11/23 09:45:05;;;;;;;9.80;4.93;;;8.10;99.90;;;;;;5023508;28;20069;-71
2022/11/23 09:48:01;;;;;;;9.98;5.07;;;8.20;99.90;;;;;;5024844;28;20584;-71
2022/11/23 09:50:52;;;;;;;13.95;4.97;;;8.30;99.90;;;;;;5028281;28;20052;-72
2022/11/23 09:53:41;;;;;;;10.90;4.90;;;8.40;99.90;;;;;;5027385;28;20051;-71
2022/11/23 09:56:26;;;;;;;10.60;4.85;;;8.50;99.90;;;;;;5017698;28;20115;-72
2022/11/23 09:58:56;;;;;;;7.15;4.25;;;8.60;99.90;;;;;;5018426;28;20040;-71
2022/11/23 10:01:24;;;;;;;8.98;4.97;;;8.70;99.90;;;;;;5016535;28;20389;-71
2022/11/23 10:03:52;;;;;;;12.50;6.95;;;8.90;99.90;;;;;;5009210;28;20501;-71
2022/11/23 10:06:20;;;;;;;18.45;7.53;;;9.10;99.90;;;;;;5009768;28;20068;-72
2022/11/23 10:09:00;;;;;;;15.98;7.22;;;9.10;99.90;;;;;;5006298;28;20549;-72
2022/11/23 10:11:59;;;;;;;11.85;6.10;;;9.20;99.90;;;;;;5009724;28;20449;-71
2022/11/23 10:14:41;;;;;;;8.73;4.85;;;9.40;99.90;;;;;;5021049;28;20050;-70
2022/11/23 10:17:21;;;;;;;14.70;5.03;;;9.60;99.90;;;;;;5012401;28;20046;-71
2022/11/23 10:20:35;;;;;;;11.80;4.60;;;9.50;99.90;;;;;;5017956;28;20500;-72
2022/11/23 10:23:18;;;;;;;12.13;5.07;;;9.60;99.90;;;;;;5022461;28;20046;-73
2022/11/23 10:25:47;;;;;;;;;;;9.70;99.90;;;;;;5023536;28;20532;-72
2022/11/23 10:28:19;;;;;;;10.65;5.38;;;10.00;99.90;;;;;;5022438;28;19945;-71
2022/11/23 10:31:00;;;;;;;9.73;5.33;;;10.20;99.90;;;;;;5009668;28;20461;-71
2022/11/23 10:33:43;;;;;;;;;;;10.40;99.90;;;;;;5021928;28;20041;-71
2022/11/23 10:36:12;;;;;;;12.15;5.57;;;10.40;99.90;;;;;;5012207;28;19932;-71
2022/11/23 10:38:40;;;;;;;10.85;5.43;;;10.70;99.90;;;;;;5021642;28;20050;-71
2022/11/23 10:41:14;;;;;;;8.65;4.97;;;10.90;99.90;;;;;;5010391;28;20057;-71
2022/11/23 10:43:50;;;;;;;16.83;5.32;;;11.60;99.90;;;;;;5023767;28;20496;-72
2022/11/23 10:46:29;;;;;;;11.57;6.20;;;12.50;99.90;;;;;;5020994;28;20042;-71
2022/11/23 10:49:15;;;;;;;15.55;8.68;;;13.30;99.90;;;;;;5021224;28;20045;-72
2022/11/23 10:51:54;;;;;;;8.15;4.75;;;14.50;99.90;;;;;;5021561;28;20042;-71
2022/11/23 10:54:54;;;;;;;9.27;4.68;;;14.60;99.90;;;;;;5023718;28;20033;-71
2022/11/23 10:57:32;;;;;;;12.85;4.85;;;14.00;99.90;;;;;;5021322;28;20053;-71
2022/11/23 11:00:11;;;;;;;9.00;4.28;;;13.60;99.90;;;;;;5021804;28;20112;-71
2022/11/23 11:02:40;;;;;;;8.52;4.30;;;13.50;99.90;;;;;;5019795;28;20038;-71
2022/11/23 11:05:26;;;;;;;11.90;4.57;;;13.40;99.90;;;;;;5018167;28;20049;-71
2022/11/23 11:08:17;;;;;;;7.85;4.93;;;14.20;99.90;;;;;;5012976;28;20054;-71
2022/11/23 11:10:48;;;;;;;7.97;4.70;;;15.20;99.90;;;;;;4999616;28;20041;-72
2022/11/23 11:13:39;;;;;;;;;;;15.20;99.90;;;;;;5019513;28;20041;-71
2022/11/23 11:16:17;;;;;;;10.32;5.45;;;14.40;99.90;;;;;;5016617;28;20371;-71
2022/11/23 11:18:45;;;;;;;12.88;5.07;;;14.80;99.90;;;;;;5008721;28;20050;-71
2022/11/23 11:21:19;;;;;;;10.40;5.13;;;15.00;99.90;;;;;;5020223;28;20069;-71
2022/11/23 11:23:58;;;;;;;8.52;5.47;;;14.40;99.90;;;;;;5014333;28;20056;-71
2022/11/23 11:26:27;;;;;;;9.73;5.18;;;13.60;99.90;;;;;;5022597;28;20056;-71
2022/11/23 11:29:01;;;;;;;11.57;5.88;;;13.30;99.90;;;;;;5021026;28;20497;-71
2022/11/23 11:31:34;;;;;;;8.32;5.22;;;13.50;99.90;;;;;;5013897;28;20049;-71
2022/11/23 11:34:27;;;;;;;10.85;5.68;;;13.60;99.90;;;;;;5021741;28;20765;-71
2022/11/23 11:37:43;;;;;;;30.00;17.67;;;13.50;99.90;;;;;;5018995;28;20060;-71
2022/11/23 11:40:37;;;;;;;11.38;6.03;;;14.70;99.90;;;;;;5025277;28;20484;-71
2022/11/23 11:43:06;;;;;;;11.60;6.28;;;16.10;99.90;;;;;;5019776;28;20068;-74
2022/11/23 11:45:43;;;;;;;12.90;5.65;;;17.50;99.90;;;;;;5028320;28;20038;-71
2022/11/23 11:48:48;;;;;;;10.15;5.38;;;18.40;99.90;;;;;;5017117;28;20048;-71
2022/11/23 11:51:21;;;;;;;10.25;5.40;;;18.40;99.90;;;;;;5025631;28;20045;-70
2022/11/23 11:54:17;;;;;;;8.50;5.20;;;17.60;99.90;;;;;;5029221;28;20041;-71
2022/11/23 11:56:48;;;;;;;10.10;5.32;;;17.70;99.90;;;;;;5030267;28;20038;-71
2022/11/23 11:59:19;;;;;;;9.40;5.82;;;18.80;99.90;;;;;;5029936;28;20499;-72
2022/11/23 12:01:49;;;;;;;7.38;4.97;;;19.70;99.90;;;;;;5028743;28;20361;-72
2022/11/23 12:04:20;;;;;;;9.40;5.20;;;19.50;99.90;;;;;;5023530;28;20456;-71
2022/11/23 12:06:55;;;;;;;8.07;4.60;;;19.50;99.90;;;;;;5023834;28;20077;-71
2022/11/23 12:09:29;;;;;;;6.53;4.80;;;19.40;99.90;;;;;;5015884;28;20448;-71
2022/11/23 12:11:58;;;;;;;9.05;5.43;;;19.40;99.90;;;;;;4997631;28;20132;-71
2022/11/23 12:14:26;;;;;;;6.25;4.45;;;19.30;99.90;;;;;;4962453;28;21067;-71
2022/11/23 12:17:08;;;;;;;9.10;4.53;;;19.00;99.90;;;;;;5009392;28;20191;-71
2022/11/23 12:19:55;;;;;;;;;;;17.80;99.90;;;;;;4989613;28;20048;-70
2022/11/23 12:22:32;;;;;;;6.93;4.78;;;17.70;99.90;;;;;;5006050;28;20375;-71
2022/11/23 12:25:35;;;;;;;9.32;4.88;;;18.10;99.90;;;;;;5016368;28;20069;-70
2022/11/23 12:28:21;;;;;;;7.07;4.47;;;18.60;99.90;;;;;;4999241;28;20125;-71
2022/11/23 12:31:16;;;;;;;10.35;5.00;;;19.00;99.90;;;;;;5028001;28;20064;-71
2022/11/23 12:34:02;;;;;;;8.13;4.50;;;19.00;99.90;;;;;;5031025;28;20076;-71
2022/11/23 12:37:01;;;;;;;7.53;4.97;;;19.80;99.90;;;;;;5015726;28;20113;-73
2022/11/23 12:39:31;;;;;;;8.13;4.78;;;20.40;99.90;;;;;;5019420;28;20209;-73
2022/11/23 12:42:05;;;;;;;8.05;4.20;;;20.20;99.90;;;;;;5026433;28;20419;-72
2022/11/23 12:44:38;;;;;;;8.52;4.82;;;20.10;99.90;;;;;;5018001;28;20834;-74
2022/11/23 12:47:21;;;;;;;6.85;4.55;;;19.80;99.90;;;;;;5011801;28;20081;-73
2022/11/23 12:50:10;;;;;;;7.18;4.38;;;20.00;99.90;;;;;;5016733;28;20136;-74
2022/11/23 12:53:02;;;;;;;7.43;4.78;;;20.40;99.90;;;;;;5019903;28;20068;-72
2022/11/23 12:55:55;;;;;;;6.05;5.03;;;20.70;99.90;;;;;;5024004;28;20052;-73
2022/11/23 12:58:28;;;;;;;7.47;4.80;;;20.90;99.90;;;;;;5019209;28;20699;-72
2022/11/23 13:01:24;;;;;;;7.07;4.72;;;20.80;99.90;;;;;;5028260;28;20055;-73
2022/11/23 13:04:21;;;;;;;7.03;5.30;;;20.50;99.90;;;;;;5016638;28;20397;-72
2022/11/23 13:07:07;;;;;;;8.35;5.43;;;20.10;99.90;;;;;;4998866;28;20145;-72
2022/11/23 13:10:34;;;;;;;9.25;4.72;;;20.10;99.90;;;;;;5021976;28;20048;-73
2022/11/23 13:13:10;;;;;;;6.72;4.85;;;20.90;99.90;;;;;;5018872;28;20141;-71
2022/11/23 13:16:14;;;;;;;7.85;5.30;;;21.00;99.70;;;;;;5028341;28;20072;-72
2022/11/23 13:18:56;;;;;;;6.47;5.40;;;21.10;99.90;;;;;;5025317;28;20045;-72
2022/11/23 13:21:39;;;;;;;10.45;5.80;;;21.20;99.60;;;;;;5026188;28;20057;-72
2022/11/23 13:24:27;;;;;;;7.32;5.28;;;21.50;99.00;;;;;;5026706;28;20175;-72